Airport Name : Stornoway

Other Name : Stornoway

ICAO : EGPO

IATA : SYY

FAA :

Latitude : 58.215556

Longitude : -6.331111

Country : United Kingdom

Local Date and Time : 01 Dec 2020 18:00

 

TAF (Terminal Aerodrome Forecast)

TAF EGPO 011700Z 0118/0203 21014KT 9999 FEW009 BKN016 TEMPO 0118/0123 7000 -DZ BKN008 PROB30 TEMPO 0118/0122 22017G27KT 4000 DZRA BKN004 TEMPO 0200/0203 6000 SHRA PROB30 TEMPO 0200/0203 25017G27KT 3000 +SHRA BKN012

 

METAR (METeorological Aerodrome Report)

EGPO 011720Z 21013KT 9999 FEW008 BKN012 10/08 Q1018

EGPO 011650Z 22010KT 9999 VCSH FEW008 SCT014 BKN022 10/08 Q1019

EGPO 011620Z 22009KT 9999 VCSH FEW011 BKN022 10/08 Q1019

EGPO 011550Z 21014KT 9999 FEW011 BKN018 10/08 Q1019

EGPO 011520Z 21012KT 9999 FEW011 BKN019 10/08 Q1019

EGPO 011450Z 22014KT 9999 FEW011 BKN019 10/08 Q1019

EGPO 011420Z 22015KT 9999 FEW011 BKN019 10/08 Q1019

To Charter a Jet Click here.